createdAt,value
2022-08-19T00:01:37.928Z,97654.56
2022-08-19T00:04:09.397Z,97660.03
2022-08-19T00:06:37.524Z,97656.44
2022-08-19T00:09:08.055Z,97656.94
2022-08-19T00:11:36.883Z,97663.97
2022-08-19T00:14:05.021Z,97661.94
2022-08-19T00:16:31.593Z,97658.25
2022-08-19T00:18:58.106Z,97661.44
2022-08-19T00:21:26.859Z,97657.88
2022-08-19T00:23:54.798Z,97654.09
2022-08-19T00:26:21.586Z,97651.72
2022-08-19T00:28:48.084Z,97648.66
2022-08-19T00:31:14.585Z,97642.69
2022-08-19T00:33:40.979Z,97648.91
2022-08-19T00:36:10.402Z,97649.00
2022-08-19T00:38:38.952Z,97653.41
2022-08-19T00:41:06.848Z,97650.53
2022-08-19T00:43:34.266Z,97661.72
2022-08-19T00:46:00.858Z,97660.31
2022-08-19T00:48:27.475Z,97669.69
2022-08-19T00:50:56.669Z,97666.34
2022-08-19T00:53:27.408Z,97676.00
2022-08-19T00:55:57.908Z,97676.00
2022-08-19T00:58:33.042Z,97675.75
2022-08-19T01:00:59.860Z,97680.28
2022-08-19T01:03:26.379Z,97681.81
2022-08-19T01:05:55.026Z,97687.16
2022-08-19T01:08:22.391Z,97682.41
2022-08-19T01:10:58.876Z,97681.94
2022-08-19T01:13:28.721Z,97678.38
2022-08-19T01:16:12.179Z,97683.34
2022-08-19T01:18:42.298Z,97683.59
2022-08-19T01:21:17.828Z,97681.94
2022-08-19T01:23:45.491Z,97683.34
2022-08-19T01:26:15.925Z,97691.09
2022-08-19T01:28:44.092Z,97692.88
2022-08-19T01:31:12.533Z,97690.28
2022-08-19T01:33:55.643Z,97692.03
2022-08-19T01:36:43.208Z,97702.38
2022-08-19T01:39:13.455Z,97700.50
2022-08-19T01:41:40.090Z,97696.56
2022-08-19T01:44:18.370Z,97694.06
2022-08-19T01:46:48.249Z,97704.16
2022-08-19T01:49:15.785Z,97713.22
2022-08-19T01:51:42.260Z,97709.41
2022-08-19T01:54:38.935Z,97706.56
2022-08-19T01:57:53.910Z,97707.84
2022-08-19T02:00:23.351Z,97722.75
2022-08-19T02:02:50.057Z,97731.66
2022-08-19T02:05:18.869Z,97735.81
2022-08-19T02:07:45.722Z,97735.00
2022-08-19T02:10:16.812Z,97730.59
2022-08-19T02:12:43.541Z,97729.88
2022-08-19T02:15:10.653Z,97722.88
2022-08-19T02:17:38.147Z,97715.38
2022-08-19T02:20:07.127Z,97712.88
2022-08-19T02:22:33.987Z,97712.88
2022-08-19T02:25:00.868Z,97724.28
2022-08-19T02:27:27.538Z,97728.47
2022-08-19T02:29:54.479Z,97732.63
2022-08-19T02:32:21.002Z,97748.69
2022-08-19T02:34:48.706Z,97748.06
2022-08-19T02:37:35.048Z,97755.81
2022-08-19T02:40:02.470Z,97754.75
2022-08-19T02:42:29.899Z,97763.28
2022-08-19T02:44:57.034Z,97761.16
2022-08-19T02:47:23.479Z,97765.56
2022-08-19T02:49:50.814Z,97763.66
2022-08-19T02:52:17.561Z,97763.66
2022-08-19T02:54:44.961Z,97778.06
2022-08-19T02:57:11.666Z,97776.50
2022-08-19T02:59:38.077Z,97783.41
2022-08-19T03:02:04.607Z,97783.66
2022-08-19T03:04:31.010Z,97783.03
2022-08-19T03:07:02.579Z,97779.72
2022-08-19T03:09:38.402Z,97774.94
2022-08-19T03:12:05.770Z,97776.16
2022-08-19T03:14:34.060Z,97784.00
2022-08-19T03:17:00.686Z,97777.56
2022-08-19T03:19:27.166Z,97760.91
2022-08-19T03:21:53.704Z,97752.25
2022-08-19T03:24:21.105Z,97749.28
2022-08-19T03:26:50.989Z,97741.53
2022-08-19T03:29:30.294Z,97748.56
2022-08-19T03:31:56.961Z,97749.63
2022-08-19T03:34:29.861Z,97746.06
2022-08-19T03:36:59.061Z,97739.88
2022-08-19T03:39:26.664Z,97727.63
2022-08-19T03:42:32.205Z,97720.47
2022-08-19T03:44:45.490Z,97718.84
2022-08-19T03:47:16.920Z,97710.00
2022-08-19T03:49:43.769Z,97707.88
2022-08-19T03:52:10.289Z,97717.38
2022-08-19T03:54:38.926Z,97712.88
2022-08-19T03:57:05.990Z,97711.69
2022-08-19T03:59:36.211Z,97718.13
2022-08-19T04:02:09.586Z,97716.69
2022-08-19T04:04:38.386Z,97714.31
2022-08-19T04:07:05.542Z,97720.00
2022-08-19T04:09:32.044Z,97708.72
2022-08-19T04:11:58.810Z,97714.56
2022-08-19T04:14:30.414Z,97712.75
2022-08-19T04:16:57.664Z,97703.00
2022-08-19T04:19:24.259Z,97704.91
2022-08-19T04:21:53.653Z,97709.31
2022-08-19T04:24:21.465Z,97716.44
2022-08-19T04:26:49.291Z,97730.94
2022-08-19T04:29:22.697Z,97733.81
2022-08-19T04:31:49.773Z,97736.19
2022-08-19T04:34:18.706Z,97740.09
2022-08-19T04:36:45.914Z,97744.28
2022-08-19T04:39:19.375Z,97751.41
2022-08-19T04:42:04.933Z,97755.44
2022-08-19T04:44:35.744Z,97757.38
2022-08-19T04:47:11.236Z,97774.00
2022-08-19T04:49:38.158Z,97787.22
2022-08-19T04:52:04.580Z,97788.25
2022-08-19T04:54:38.587Z,97795.28
2022-08-19T04:57:08.413Z,97792.69
2022-08-19T04:59:36.166Z,97806.59
2022-08-19T05:02:03.719Z,97808.25
2022-08-19T05:04:31.882Z,97808.13
2022-08-19T05:07:00.888Z,97806.25
2022-08-19T05:09:36.190Z,97802.56
2022-08-19T05:12:15.551Z,97809.47
2022-08-19T05:14:42.037Z,97804.09
2022-08-19T05:17:26.541Z,97810.91
2022-08-19T05:20:12.721Z,97806.13
2022-08-19T05:22:39.407Z,97816.72
2022-08-19T05:25:13.867Z,97824.56
2022-08-19T05:27:42.220Z,97828.97
2022-08-19T05:30:10.131Z,97831.59
2022-08-19T05:32:36.716Z,97840.88
2022-08-19T05:35:04.812Z,97844.44
2022-08-19T05:37:31.301Z,97846.81
2022-08-19T05:39:57.823Z,97844.69
2022-08-19T05:42:24.363Z,97840.06
2022-08-19T05:44:51.746Z,97841.59
2022-08-19T05:47:20.653Z,97838.25
2022-08-19T05:49:47.849Z,97839.22
2022-08-19T05:52:19.504Z,97832.69
2022-08-19T05:54:52.117Z,97846.38
2022-08-19T05:57:21.606Z,97833.75
2022-08-19T05:59:49.421Z,97843.03
2022-08-19T06:02:20.146Z,97834.09
2022-08-19T06:04:46.895Z,97847.91
2022-08-19T06:07:13.379Z,97836.34
2022-08-19T06:09:41.275Z,97838.63
2022-08-19T06:16:41.167Z,97825.66
2022-08-19T06:19:11.596Z,97819.34
2022-08-19T06:21:41.421Z,97821.59
2022-08-19T06:24:10.995Z,97816.38
2022-08-19T06:26:39.859Z,97818.63
2022-08-19T06:29:07.713Z,97824.19
2022-08-19T06:31:35.985Z,97831.91
2022-08-19T06:34:05.201Z,97829.44
2022-08-19T06:36:38.350Z,97834.44
2022-08-19T06:39:11.161Z,97833.59
2022-08-19T06:41:47.127Z,97831.91
2022-08-19T06:44:18.923Z,97826.09
2022-08-19T06:46:53.693Z,97830.28
2022-08-19T06:49:23.137Z,97831.09
2022-08-19T06:51:50.397Z,97834.66
2022-08-19T06:54:20.268Z,97837.00
2022-08-19T06:56:47.789Z,97847.25
2022-08-19T06:59:17.378Z,97843.19
2022-08-19T07:01:56.168Z,97849.03
2022-08-19T07:04:26.289Z,97845.53
2022-08-19T07:07:20.194Z,97843.03
2022-08-19T07:09:57.172Z,97849.44
2022-08-19T07:12:30.636Z,97857.63
2022-08-19T07:14:58.711Z,97866.22
2022-08-19T07:17:26.029Z,97872.59
2022-08-19T07:19:54.481Z,97877.78
2022-08-19T07:22:23.430Z,97877.53
2022-08-19T07:24:51.980Z,97880.84
2022-08-19T07:27:24.284Z,97872.38
2022-08-19T07:29:57.358Z,97877.16
2022-08-19T07:32:27.535Z,97878.59
2022-08-19T07:34:54.686Z,97877.09
2022-08-19T07:37:21.192Z,97882.09
2022-08-19T07:39:48.253Z,97874.34
2022-08-19T07:42:15.427Z,97881.63
2022-08-19T07:44:42.680Z,97875.69
2022-08-19T07:47:48.779Z,97879.78
2022-08-19T07:50:07.888Z,97884.63
2022-08-19T07:52:35.238Z,97887.38
2022-08-19T07:55:04.661Z,97887.56
2022-08-19T07:57:31.311Z,97879.03
2022-08-19T07:59:57.894Z,97882.09
2022-08-19T08:02:24.433Z,97885.81
2022-08-19T08:05:29.239Z,97882.50
2022-08-19T08:08:14.436Z,97896.78
2022-08-19T08:10:41.057Z,97881.88
2022-08-19T08:13:11.002Z,97890.72
2022-08-19T08:15:42.673Z,97878.44
2022-08-19T08:18:10.163Z,97877.25
2022-08-19T08:20:36.596Z,97875.31
2022-08-19T08:23:21.767Z,97878.66
2022-08-19T08:25:49.387Z,97871.63
2022-08-19T08:28:17.621Z,97874.38
2022-08-19T08:30:46.672Z,97876.28
2022-08-19T08:35:46.721Z,97876.53
2022-08-19T08:38:14.093Z,97878.91
2022-08-19T08:40:49.669Z,97875.06
2022-08-19T08:43:24.321Z,97865.31
2022-08-19T08:46:16.218Z,97866.13
2022-08-19T08:49:12.974Z,97857.69
2022-08-19T08:51:45.105Z,97862.09
2022-08-19T08:54:18.762Z,97866.75
2022-08-19T08:56:46.826Z,97862.94
2022-08-19T08:59:18.128Z,97872.44
2022-08-19T09:01:44.610Z,97869.81
2022-08-19T09:04:13.999Z,97869.81
2022-08-19T09:06:55.931Z,97882.50
2022-08-19T09:09:40.481Z,97886.06
2022-08-19T09:12:27.039Z,97884.88
2022-08-19T09:15:05.249Z,97876.69
2022-08-19T09:17:33.494Z,97876.56
2022-08-19T09:20:22.085Z,97869.66
2022-08-19T09:22:50.197Z,97878.34
2022-08-19T09:25:27.054Z,97877.63
2022-08-19T09:28:02.882Z,97883.56
2022-08-19T09:30:35.743Z,97885.63
2022-08-19T09:33:02.285Z,97890.28
2022-08-19T09:35:30.764Z,97881.34
2022-08-19T09:38:00.406Z,97882.31
2022-08-19T09:40:29.980Z,97883.94
2022-08-19T09:42:58.093Z,97877.50
2022-08-19T09:45:24.854Z,97879.63
2022-08-19T09:47:54.466Z,97880.72
2022-08-19T09:50:22.769Z,97883.91
2022-08-19T09:52:57.132Z,97894.25
2022-08-19T09:55:32.053Z,97884.00
2022-08-19T09:58:01.302Z,97883.31
2022-08-19T10:00:27.910Z,97880.41
2022-08-19T10:02:54.392Z,97885.81
2022-08-19T10:05:42.536Z,97878.75
2022-08-19T10:08:13.827Z,97870.78
2022-08-19T10:10:46.228Z,97868.03
2022-08-19T10:13:15.949Z,97874.22
2022-08-19T10:15:47.750Z,97886.41
2022-08-19T10:18:19.098Z,97888.03
2022-08-19T10:20:51.334Z,97893.63
2022-08-19T10:23:20.104Z,97897.19
2022-08-19T10:25:46.990Z,97889.72
2022-08-19T10:28:14.739Z,97894.00
2022-08-19T10:30:42.822Z,97893.50
2022-08-19T10:33:11.179Z,97896.75
2022-08-19T10:35:42.765Z,97899.56
2022-08-19T10:38:30.609Z,97902.06
2022-08-19T10:40:59.500Z,97898.50
2022-08-19T10:43:26.338Z,97894.66
2022-08-19T10:45:56.444Z,97897.97
2022-08-19T10:48:23.027Z,97894.81
2022-08-19T10:51:08.185Z,97900.81
2022-08-19T10:53:34.701Z,97902.22
2022-08-19T10:56:21.268Z,97895.84
2022-08-19T10:58:48.121Z,97900.28
2022-08-19T11:01:14.655Z,97899.59
2022-08-19T11:03:41.167Z,97897.44
2022-08-19T11:06:09.755Z,97892.47
2022-08-19T11:08:38.686Z,97889.44
2022-08-19T11:11:07.009Z,97886.00
2022-08-19T11:13:37.084Z,97890.25
2022-08-19T11:16:26.586Z,97896.91
2022-08-19T11:18:59.312Z,97895.97
2022-08-19T11:21:27.469Z,97891.38
2022-08-19T11:23:59.112Z,97889.84
2022-08-19T11:26:25.970Z,97893.63
2022-08-19T11:28:55.184Z,97892.72
2022-08-19T11:31:28.766Z,97896.41
2022-08-19T11:33:58.135Z,97893.34
2022-08-19T11:36:24.688Z,97898.59
2022-08-19T11:38:51.727Z,97904.59
2022-08-19T11:41:20.716Z,97902.22
2022-08-19T11:43:47.769Z,97902.50
2022-08-19T11:46:16.535Z,97897.38
2022-08-19T11:48:43.766Z,97896.66
2022-08-19T11:51:13.407Z,97897.97
2022-08-19T11:53:40.415Z,97896.34
2022-08-19T11:56:08.453Z,97889.44
2022-08-19T11:58:35.812Z,97889.06
2022-08-19T12:01:02.533Z,97883.00
2022-08-19T12:03:29.056Z,97886.81
2022-08-19T12:05:55.717Z,97885.00
2022-08-19T12:08:22.156Z,97896.09
2022-08-19T12:10:48.693Z,97877.88
2022-08-19T12:13:19.547Z,97876.75
2022-08-19T12:15:48.278Z,97884.28
2022-08-19T12:18:15.340Z,97881.53
2022-08-19T12:20:44.028Z,97882.75
2022-08-19T12:23:10.932Z,97883.25
2022-08-19T12:25:50.863Z,97881.31
2022-08-19T12:28:17.838Z,97878.34
2022-08-19T12:30:44.338Z,97877.53
2022-08-19T12:33:10.795Z,97883.13
2022-08-19T12:35:45.217Z,97879.81
2022-08-19T12:38:12.548Z,97878.03
2022-08-19T12:40:40.952Z,97880.19
2022-08-19T12:43:08.415Z,97879.59
2022-08-19T12:45:35.468Z,97885.69
2022-08-19T12:48:03.786Z,97888.19
2022-08-19T12:50:50.483Z,97883.75
2022-08-19T12:53:17.112Z,97895.19
2022-08-19T12:55:46.425Z,97889.25
2022-08-19T12:58:13.550Z,97896.97
2022-08-19T13:00:40.803Z,97892.81
2022-08-19T13:03:07.293Z,97891.38
2022-08-19T13:05:37.073Z,97888.06
2022-08-19T13:08:03.807Z,97884.38
2022-08-19T13:10:35.751Z,97899.25
2022-08-19T13:13:08.206Z,97896.66
2022-08-19T13:15:37.120Z,97896.03
2022-08-19T13:18:04.398Z,97898.28
2022-08-19T13:20:31.029Z,97894.16
2022-08-19T13:22:58.220Z,97893.91
2022-08-19T13:25:26.387Z,97909.84
2022-08-19T13:27:53.541Z,97905.44
2022-08-19T13:30:39.746Z,97902.47
2022-08-19T13:33:12.393Z,97906.72
2022-08-19T13:35:50.822Z,97899.00
2022-08-19T13:38:20.162Z,97905.22
2022-08-19T13:40:47.560Z,97901.50
2022-08-19T13:43:22.962Z,97900.66
2022-08-19T13:45:58.591Z,97907.47
2022-08-19T13:48:27.514Z,97915.91
2022-08-19T13:50:56.994Z,97911.59
2022-08-19T13:53:23.566Z,97911.88
2022-08-19T13:55:53.267Z,97915.94
2022-08-19T13:58:25.005Z,97921.75
2022-08-19T14:00:51.842Z,97913.88
2022-08-19T14:03:18.516Z,97921.16
2022-08-19T14:05:45.129Z,97924.38
2022-08-19T14:08:13.194Z,97921.03
2022-08-19T14:10:40.138Z,97927.72
2022-08-19T14:13:06.557Z,97926.66
2022-08-19T14:15:33.185Z,97925.09
2022-08-19T14:17:59.729Z,97921.88
2022-08-19T14:20:26.696Z,97917.13
2022-08-19T14:22:54.886Z,97921.63
2022-08-19T14:25:26.792Z,97924.38
2022-08-19T14:27:53.806Z,97913.91
2022-08-19T14:30:29.139Z,97920.91
2022-08-19T14:32:59.101Z,97917.19
2022-08-19T14:35:27.685Z,97914.38
2022-08-19T14:37:56.716Z,97912.19
2022-08-19T14:40:26.949Z,97913.66
2022-08-19T14:43:01.184Z,97919.28
2022-08-19T14:45:29.601Z,97912.34
2022-08-19T14:47:56.330Z,97913.06
2022-08-19T14:50:23.469Z,97917.59
2022-08-19T14:52:50.635Z,97916.41
2022-08-19T14:55:18.216Z,97915.56
2022-08-19T14:57:45.445Z,97910.56
2022-08-19T15:00:13.986Z,97917.59
2022-08-19T15:02:46.635Z,97912.34
2022-08-19T15:05:13.688Z,97921.88
2022-08-19T15:07:41.249Z,97918.78
2022-08-19T15:10:08.983Z,97914.09
2022-08-19T15:12:36.094Z,97923.97
2022-08-19T15:15:04.933Z,97921.69
2022-08-19T15:17:43.456Z,97923.72
2022-08-19T15:20:17.157Z,97923.72
2022-08-19T15:22:43.670Z,97924.66
2022-08-19T15:25:12.929Z,97935.16
2022-08-19T15:27:41.480Z,97935.16
2022-08-19T15:30:09.337Z,97939.56
2022-08-19T15:32:37.411Z,97941.69
2022-08-19T15:35:06.248Z,97943.34
2022-08-19T15:37:37.029Z,97948.72
2022-08-19T15:40:08.957Z,97944.16
2022-08-19T15:42:39.046Z,97957.72
2022-08-19T15:45:06.642Z,97955.59
2022-08-19T15:47:34.846Z,97954.25
2022-08-19T15:50:21.336Z,97958.31
2022-08-19T15:52:53.934Z,97949.38
2022-08-19T15:55:33.031Z,97952.94
2022-08-19T15:58:28.933Z,97952.44
2022-08-19T16:01:21.162Z,97949.59
2022-08-19T16:04:14.140Z,97956.00
2022-08-19T16:06:47.860Z,97956.47
2022-08-19T16:09:15.647Z,97951.72
2022-08-19T16:11:45.785Z,97961.69
2022-08-19T16:14:14.566Z,97951.19
2022-08-19T16:16:41.051Z,97963.38
2022-08-19T16:19:10.406Z,97961.09
2022-08-19T16:21:41.779Z,97960.66
2022-08-19T16:24:10.754Z,97952.94
2022-08-19T16:26:37.381Z,97960.06
2022-08-19T16:29:08.758Z,97959.06
2022-08-19T16:31:38.541Z,97956.47
2022-08-19T16:34:06.062Z,97965.91
2022-08-19T16:36:33.768Z,97968.13
2022-08-19T16:39:01.113Z,97976.06
2022-08-19T16:41:28.608Z,97972.75
2022-08-19T16:43:55.337Z,97969.81
2022-08-19T16:46:23.332Z,97977.03
2022-08-19T16:48:54.206Z,97985.31
2022-08-19T16:51:22.567Z,97989.28
2022-08-19T16:53:49.674Z,97991.59
2022-08-19T16:56:16.201Z,97995.97
2022-08-19T16:58:43.195Z,97994.72
2022-08-19T17:01:10.657Z,97993.25
2022-08-19T17:03:39.893Z,98001.19
2022-08-19T17:06:19.052Z,97996.81
2022-08-19T17:08:50.071Z,98007.91
2022-08-19T17:11:18.948Z,98005.28
2022-08-19T17:13:47.964Z,98013.22
2022-08-19T17:16:15.851Z,98007.16
2022-08-19T17:18:42.338Z,98004.63
2022-08-19T17:21:08.847Z,98004.53
2022-08-19T17:23:42.420Z,98005.38
2022-08-19T17:26:14.017Z,98000.28
2022-08-19T17:28:45.445Z,98001.81
2022-08-19T17:31:12.105Z,98001.81
2022-08-19T17:33:41.345Z,98002.78
2022-08-19T17:36:08.976Z,98007.03
2022-08-19T17:38:36.975Z,98013.22
2022-08-19T17:41:06.375Z,98002.88
2022-08-19T17:43:38.939Z,98001.00
2022-08-19T17:46:11.101Z,98003.72
2022-08-19T17:48:38.859Z,98012.38
2022-08-19T17:51:14.828Z,98019.81
2022-08-19T17:53:41.421Z,98025.41
2022-08-19T17:56:07.962Z,98018.50
2022-08-19T17:58:34.642Z,98015.16
2022-08-19T18:01:02.773Z,98022.25
2022-08-19T18:03:30.214Z,98025.81
2022-08-19T18:05:57.074Z,98024.13
2022-08-19T18:08:23.956Z,98033.09
2022-08-19T18:10:50.766Z,98028.09
2022-08-19T18:13:18.102Z,98021.69
2022-08-19T18:15:44.649Z,98030.56
2022-08-19T18:18:14.934Z,98026.25
2022-08-19T18:20:42.458Z,98025.91
2022-08-19T18:23:43.911Z,98020.06
2022-08-19T18:25:56.122Z,98015.25
2022-08-19T18:28:23.834Z,98014.59
2022-08-19T18:30:50.263Z,98016.38
2022-08-19T18:33:16.830Z,98015.31
2022-08-19T18:35:49.408Z,98016.28
2022-08-19T18:38:37.654Z,98013.13
2022-08-19T18:41:23.513Z,98011.47
2022-08-19T18:44:08.806Z,98017.41
2022-08-19T18:46:54.034Z,98025.44
2022-08-19T18:49:27.738Z,98030.09
2022-08-19T18:51:55.787Z,98036.38
2022-08-19T18:54:23.917Z,98040.00
2022-08-19T18:56:55.553Z,98047.03
2022-08-19T18:59:27.481Z,98040.47
2022-08-19T19:01:56.615Z,98045.84
2022-08-19T19:04:29.352Z,98049.31
2022-08-19T19:06:55.844Z,98053.59
2022-08-19T19:09:24.623Z,98053.66
2022-08-19T19:11:58.016Z,98052.84
2022-08-19T19:14:48.741Z,98055.63
2022-08-19T19:17:15.915Z,98062.72
2022-08-19T19:19:42.903Z,98064.47
2022-08-19T19:22:12.561Z,98069.69
2022-08-19T19:24:44.137Z,98075.00
2022-08-19T19:27:12.959Z,98080.03
2022-08-19T19:29:40.841Z,98087.75
2022-08-19T19:32:11.594Z,98084.13
2022-08-19T19:34:39.467Z,98088.81
2022-08-19T19:37:05.987Z,98082.00
2022-08-19T19:39:45.092Z,98091.66
2022-08-19T19:42:20.555Z,98097.84
2022-08-19T19:44:50.105Z,98101.06
2022-08-19T19:47:17.477Z,98098.47
2022-08-19T19:52:38.440Z,98102.56
2022-08-19T19:55:05.518Z,98105.28
2022-08-19T19:57:32.040Z,98104.53
2022-08-19T19:59:58.719Z,98104.66
2022-08-19T20:02:25.322Z,98109.09
2022-08-19T20:04:52.092Z,98103.16
2022-08-19T20:07:38.672Z,98116.72
2022-08-19T20:10:05.703Z,98115.91
2022-08-19T20:12:32.132Z,98120.47
2022-08-19T20:14:58.601Z,98122.31
2022-08-19T20:17:25.042Z,98121.50
2022-08-19T20:19:51.495Z,98126.59
2022-08-19T20:22:19.038Z,98142.25
2022-08-19T20:24:45.762Z,98135.53
2022-08-19T20:27:12.635Z,98136.44
2022-08-19T20:29:41.481Z,98133.84
2022-08-19T20:32:10.357Z,98133.13
2022-08-19T20:34:37.316Z,98132.28
2022-08-19T20:37:04.705Z,98134.03
2022-08-19T20:39:31.288Z,98137.69
2022-08-19T20:41:57.818Z,98136.81
2022-08-19T20:44:27.177Z,98140.53
2022-08-19T20:46:54.753Z,98137.19
2022-08-19T20:49:27.014Z,98134.78
2022-08-19T20:51:54.742Z,98139.22
2022-08-19T20:54:21.724Z,98134.28
2022-08-19T20:56:48.299Z,98136.91
2022-08-19T20:59:14.888Z,98141.28
2022-08-19T21:01:41.576Z,98137.75
2022-08-19T21:04:08.096Z,98139.50
2022-08-19T21:06:34.641Z,98131.69
2022-08-19T21:09:01.264Z,98133.28
2022-08-19T21:11:27.779Z,98141.28
2022-08-19T21:13:54.340Z,98135.34
2022-08-19T21:16:20.776Z,98139.59
2022-08-19T21:18:48.444Z,98136.06
2022-08-19T21:21:15.903Z,98136.72
2022-08-19T21:23:44.095Z,98143.69
2022-08-19T21:26:11.025Z,98139.31
2022-08-19T21:28:37.693Z,98137.75
2022-08-19T21:31:06.377Z,98143.16
2022-08-19T21:33:55.557Z,98145.66
2022-08-19T21:36:39.936Z,98139.41
2022-08-19T21:39:06.657Z,98141.28
2022-08-19T21:41:33.178Z,98142.97
2022-08-19T21:43:59.784Z,98144.63
2022-08-19T21:46:26.282Z,98146.50
2022-08-19T21:48:52.760Z,98150.03
2022-08-19T21:51:19.362Z,98148.19
2022-08-19T21:53:47.904Z,98150.88
2022-08-19T21:56:15.156Z,98156.28
2022-08-19T21:58:41.680Z,98153.72
2022-08-19T22:01:09.157Z,98159.88
2022-08-19T22:03:37.500Z,98155.59
2022-08-19T22:06:06.644Z,98150.38
2022-08-19T22:08:33.131Z,98148.69
2022-08-19T22:10:59.678Z,98152.81
2022-08-19T22:13:27.681Z,98157.19
2022-08-19T22:15:55.268Z,98165.00
2022-08-19T22:18:22.037Z,98156.31
2022-08-19T22:20:48.622Z,98156.28
2022-08-19T22:23:15.091Z,98159.88
2022-08-19T22:25:46.004Z,98166.75
2022-08-19T22:28:18.756Z,98159.88
2022-08-19T22:30:56.474Z,98166.00
2022-08-19T22:33:23.895Z,98160.16
2022-08-19T22:35:52.371Z,98169.44
2022-08-19T22:38:19.360Z,98165.91
2022-08-19T22:40:48.417Z,98164.31
2022-08-19T22:43:19.945Z,98167.88
2022-08-19T22:45:48.097Z,98172.13
2022-08-19T22:48:16.285Z,98169.53
2022-08-19T22:51:04.932Z,98166.00
2022-08-19T22:53:36.883Z,98163.59
2022-08-19T22:56:06.577Z,98167.03
2022-08-19T22:58:33.111Z,98161.16
2022-08-19T23:00:59.900Z,98152.44
2022-08-19T23:03:26.690Z,98162.09
2022-08-19T23:05:56.040Z,98163.00
2022-08-19T23:08:23.469Z,98154.09
2022-08-19T23:10:50.207Z,98151.66
2022-08-19T23:13:17.920Z,98151.56
2022-08-19T23:15:46.120Z,98154.94
2022-08-19T23:18:14.173Z,98143.66
2022-08-19T23:20:44.775Z,98143.66
2022-08-19T23:23:24.274Z,98135.75
2022-08-19T23:25:56.264Z,98131.41
2022-08-19T23:28:42.496Z,98129.53
2022-08-19T23:31:09.284Z,98128.72
2022-08-19T23:33:51.377Z,98125.25
2022-08-19T23:36:19.828Z,98127.63
2022-08-19T23:38:48.296Z,98119.88
2022-08-19T23:41:17.326Z,98120.03
2022-08-19T23:43:44.625Z,98124.53
2022-08-19T23:46:13.554Z,98128.53
2022-08-19T23:48:40.374Z,98128.81
2022-08-19T23:51:09.528Z,98129.81
2022-08-19T23:53:41.247Z,98132.25
2022-08-19T23:56:09.983Z,98142.03
2022-08-19T23:58:37.849Z,98142.06
